createdAt,value
2022-09-21T00:05:00.889Z,9.70
2022-09-21T00:10:02.540Z,9.60
2022-09-21T00:15:13.277Z,9.50
2022-09-21T00:20:15.940Z,9.50
2022-09-21T00:25:18.519Z,9.40
2022-09-21T00:30:20.162Z,9.40
2022-09-21T00:35:21.822Z,9.40
2022-09-21T00:40:23.486Z,9.30
2022-09-21T00:45:25.180Z,9.20
2022-09-21T00:50:26.967Z,9.20
2022-09-21T00:55:38.026Z,9.10
2022-09-21T01:00:40.487Z,9.10
2022-09-21T01:05:42.156Z,9.10
2022-09-21T01:11:01.647Z,9.10
2022-09-21T01:16:17.093Z,9.00
2022-09-21T01:21:26.486Z,9.00
2022-09-21T01:26:48.910Z,9.00
2022-09-21T01:31:57.008Z,9.00
2022-09-21T01:37:04.263Z,9.10
2022-09-21T01:42:07.316Z,9.10
2022-09-21T01:47:12.651Z,9.10
2022-09-21T01:52:46.156Z,8.90
2022-09-21T01:57:56.569Z,8.90
2022-09-21T02:03:05.421Z,8.80
2022-09-21T02:08:09.039Z,8.70
2022-09-21T02:13:11.399Z,8.70
2022-09-21T02:18:41.247Z,8.60
2022-09-21T02:23:57.586Z,8.60
2022-09-21T02:29:15.974Z,8.50
2022-09-21T02:34:45.989Z,8.50
2022-09-21T02:40:19.673Z,8.40
2022-09-21T02:45:25.505Z,8.40
2022-09-21T02:50:40.106Z,8.40
2022-09-21T02:55:44.264Z,8.30
2022-09-21T03:00:45.941Z,8.30
2022-09-21T03:05:50.905Z,8.20
2022-09-21T03:10:53.882Z,8.20
2022-09-21T03:16:04.011Z,8.10
2022-09-21T03:21:05.980Z,8.10
2022-09-21T03:26:08.838Z,8.10
2022-09-21T03:31:10.592Z,8.00
2022-09-21T03:36:12.277Z,8.00
2022-09-21T03:41:15.222Z,8.00
2022-09-21T03:46:17.264Z,7.90
2022-09-21T03:51:18.979Z,7.90
2022-09-21T03:56:20.621Z,7.80
2022-09-21T04:01:22.387Z,7.80
2022-09-21T04:06:25.064Z,7.80
2022-09-21T04:11:26.691Z,7.80
2022-09-21T04:16:28.705Z,7.80
2022-09-21T04:21:30.462Z,7.70
2022-09-21T04:26:34.294Z,7.70
2022-09-21T04:31:35.996Z,7.70
2022-09-21T04:36:37.818Z,7.70
2022-09-21T04:41:39.535Z,7.60
2022-09-21T04:46:42.275Z,7.60
2022-09-21T04:51:43.979Z,7.60
2022-09-21T04:56:45.668Z,7.60
2022-09-21T05:01:47.330Z,7.50
2022-09-21T05:06:49.031Z,7.50
2022-09-21T05:11:51.999Z,7.60
2022-09-21T05:16:53.721Z,7.60
2022-09-21T05:21:55.376Z,7.60
2022-09-21T05:26:57.191Z,7.70
2022-09-21T05:32:18.537Z,7.70
2022-09-21T05:37:52.096Z,7.70
2022-09-21T05:42:53.928Z,7.70
2022-09-21T05:48:07.844Z,7.70
2022-09-21T05:53:34.004Z,7.80
2022-09-21T05:58:57.275Z,7.80
2022-09-21T06:03:59.838Z,7.80
2022-09-21T06:09:01.457Z,7.90
2022-09-21T06:14:03.307Z,8.00
2022-09-21T06:19:05.262Z,8.10
2022-09-21T06:24:07.343Z,8.10
2022-09-21T06:29:08.972Z,8.20
2022-09-21T06:34:10.633Z,8.30
2022-09-21T06:39:12.829Z,8.40
2022-09-21T06:44:14.508Z,8.50
2022-09-21T06:49:16.197Z,8.50
2022-09-21T06:54:18.362Z,8.60
2022-09-21T06:59:20.367Z,8.70
2022-09-21T07:04:25.340Z,8.80
2022-09-21T07:14:48.685Z,9.10
2022-09-21T07:19:50.484Z,9.20
2022-09-21T07:24:52.276Z,9.30
2022-09-21T07:29:54.184Z,9.50
2022-09-21T07:34:56.965Z,9.60
2022-09-21T07:39:58.785Z,9.70
2022-09-21T07:45:04.315Z,9.90
2022-09-21T07:50:06.955Z,10.00
2022-09-21T07:55:08.704Z,10.10
2022-09-21T08:00:11.006Z,10.30
2022-09-21T08:05:12.641Z,10.40
2022-09-21T08:10:14.385Z,10.60
2022-09-21T08:15:43.949Z,10.70
2022-09-21T08:20:39.448Z,10.90
2022-09-21T08:25:41.103Z,11.00
2022-09-21T08:30:42.701Z,11.30
2022-09-21T08:35:52.279Z,11.80
2022-09-21T08:40:55.190Z,12.30
2022-09-21T08:45:59.515Z,12.80
2022-09-21T08:51:05.770Z,13.10
2022-09-21T08:56:12.979Z,13.00
2022-09-21T09:01:21.232Z,13.30
2022-09-21T09:06:28.829Z,13.60
2022-09-21T09:11:49.746Z,14.10
2022-09-21T09:17:16.148Z,14.40
2022-09-21T09:22:33.615Z,14.50
2022-09-21T09:27:42.445Z,14.90
2022-09-21T09:32:58.243Z,15.30
2022-09-21T09:38:13.108Z,15.40
2022-09-21T09:43:32.920Z,14.70
2022-09-21T09:48:55.088Z,14.60
2022-09-21T09:54:00.845Z,14.60
2022-09-21T09:59:09.050Z,14.90
2022-09-21T10:04:13.621Z,15.00
2022-09-21T10:09:24.133Z,15.40
2022-09-21T10:14:29.698Z,15.50
2022-09-21T10:19:31.885Z,15.90
2022-09-21T10:24:37.286Z,16.30
2022-09-21T10:29:47.742Z,16.10
2022-09-21T10:35:07.720Z,16.00
2022-09-21T10:40:21.689Z,16.40
2022-09-21T10:45:26.552Z,16.00
2022-09-21T10:50:37.904Z,15.90
2022-09-21T10:55:58.484Z,16.60
2022-09-21T11:01:28.935Z,16.40
2022-09-21T11:06:39.071Z,15.90
2022-09-21T11:12:07.967Z,15.40
2022-09-21T11:17:20.585Z,15.20
2022-09-21T11:22:57.328Z,15.40
2022-09-21T11:28:13.436Z,15.50
2022-09-21T11:33:39.468Z,15.50
2022-09-21T11:39:05.064Z,15.60
2022-09-21T11:44:25.469Z,15.80
2022-09-21T11:50:26.281Z,15.40
2022-09-21T11:55:47.247Z,15.70
2022-09-21T12:01:17.637Z,16.40
2022-09-21T12:06:57.374Z,16.60
2022-09-21T12:12:17.997Z,16.00
2022-09-21T12:17:28.709Z,15.80
2022-09-21T12:22:34.907Z,16.00
2022-09-21T12:27:41.449Z,16.20
2022-09-21T12:32:53.431Z,17.00
2022-09-21T12:38:13.754Z,16.80
2022-09-21T12:43:21.640Z,16.60
2022-09-21T12:48:45.143Z,16.70
2022-09-21T12:53:51.093Z,17.40
2022-09-21T12:59:12.072Z,17.70
2022-09-21T13:04:48.103Z,16.70
2022-09-21T13:09:51.206Z,16.20
2022-09-21T13:14:59.182Z,16.00
2022-09-21T13:20:20.584Z,15.70
2022-09-21T13:25:28.207Z,15.60
2022-09-21T13:30:42.488Z,15.50
2022-09-21T13:36:02.103Z,15.50
2022-09-21T13:41:19.414Z,16.00
2022-09-21T13:46:36.141Z,15.90
2022-09-21T13:52:05.851Z,16.10
2022-09-21T13:57:16.427Z,16.70
2022-09-21T14:02:37.163Z,16.90
2022-09-21T14:12:45.588Z,17.90
2022-09-21T14:18:16.200Z,18.10
2022-09-21T14:23:24.046Z,17.90
2022-09-21T14:28:39.248Z,18.00
2022-09-21T14:33:50.203Z,18.40
2022-09-21T14:39:00.383Z,18.70
2022-09-21T14:44:02.372Z,18.70
2022-09-21T14:49:24.954Z,18.90
2022-09-21T14:54:51.558Z,18.70
2022-09-21T15:00:03.151Z,19.00
2022-09-21T15:05:36.365Z,19.30
2022-09-21T15:10:57.304Z,19.70
2022-09-21T15:16:35.897Z,19.10
2022-09-21T15:21:43.377Z,19.30
2022-09-21T15:26:45.983Z,19.40
2022-09-21T15:31:47.988Z,19.70
2022-09-21T15:36:51.998Z,18.70
2022-09-21T15:42:19.629Z,18.10
2022-09-21T15:47:25.921Z,18.00
2022-09-21T15:52:37.788Z,18.50
2022-09-21T15:57:42.980Z,18.00
2022-09-21T16:02:57.134Z,17.90
2022-09-21T16:08:30.119Z,18.00
2022-09-21T16:13:51.364Z,17.60
2022-09-21T16:18:55.864Z,17.40
2022-09-21T16:24:09.703Z,17.10
2022-09-21T16:29:23.961Z,16.80
2022-09-21T16:34:36.789Z,16.80
2022-09-21T16:39:38.519Z,16.70
2022-09-21T16:44:44.753Z,16.60
2022-09-21T16:49:46.421Z,16.50
2022-09-21T16:54:49.413Z,16.40
2022-09-21T16:59:51.411Z,16.30
2022-09-21T17:04:53.039Z,16.10
2022-09-21T17:09:54.682Z,16.00
2022-09-21T17:14:56.394Z,15.80
2022-09-21T17:19:58.091Z,15.70
2022-09-21T17:24:59.707Z,15.50
2022-09-21T17:30:03.416Z,15.40
2022-09-21T17:35:23.920Z,15.10
2022-09-21T17:40:27.223Z,14.90
2022-09-21T17:45:46.601Z,14.60
2022-09-21T17:50:49.720Z,14.50
2022-09-21T17:55:57.570Z,14.30
2022-09-21T18:01:08.274Z,14.20
2022-09-21T18:06:10.970Z,14.00
2022-09-21T18:11:24.960Z,13.80
2022-09-21T18:16:35.054Z,13.70
2022-09-21T18:21:43.013Z,13.60
2022-09-21T18:26:45.041Z,13.50
2022-09-21T18:31:59.091Z,13.30
2022-09-21T18:37:30.403Z,13.20
2022-09-21T18:42:53.367Z,13.20
2022-09-21T18:48:34.755Z,13.10
2022-09-21T18:53:45.160Z,13.10
2022-09-21T18:58:47.101Z,13.00
2022-09-21T19:03:49.803Z,12.90
2022-09-21T19:09:21.999Z,12.80
2022-09-21T19:14:31.070Z,12.80
2022-09-21T19:19:55.992Z,12.70
2022-09-21T19:25:14.170Z,12.60
2022-09-21T19:30:17.113Z,12.40
2022-09-21T19:35:25.456Z,12.30
2022-09-21T19:40:32.869Z,12.20
2022-09-21T19:46:05.620Z,12.10
2022-09-21T19:51:33.763Z,12.00
2022-09-21T19:57:06.020Z,11.90
2022-09-21T20:02:22.045Z,11.80
2022-09-21T20:07:48.625Z,11.80
2022-09-21T20:13:03.567Z,11.70
2022-09-21T20:18:28.518Z,11.60
2022-09-21T20:23:30.618Z,11.50
2022-09-21T20:28:32.710Z,11.50
2022-09-21T20:33:34.340Z,11.40
2022-09-21T20:38:36.216Z,11.30
2022-09-21T20:43:37.877Z,11.20
2022-09-21T20:48:40.026Z,11.20
2022-09-21T20:53:41.625Z,11.10
2022-09-21T20:58:43.228Z,11.10
2022-09-21T21:03:44.882Z,11.00
2022-09-21T21:08:46.935Z,10.90
2022-09-21T21:13:48.573Z,10.90
2022-09-21T21:18:50.759Z,10.80
2022-09-21T21:24:11.336Z,10.70
2022-09-21T21:29:13.175Z,10.70
2022-09-21T21:34:15.727Z,10.60
2022-09-21T21:39:17.444Z,10.60
2022-09-21T21:44:19.084Z,10.50
2022-09-21T21:49:21.457Z,10.50
2022-09-21T21:54:24.216Z,10.40
2022-09-21T21:59:25.822Z,10.40
2022-09-21T22:04:28.046Z,10.40
2022-09-21T22:09:29.825Z,10.30
2022-09-21T22:14:31.838Z,10.30
2022-09-21T22:19:33.541Z,10.20
2022-09-21T22:24:35.168Z,10.10
2022-09-21T22:29:36.803Z,10.10
2022-09-21T22:34:38.411Z,10.10
2022-09-21T22:39:40.075Z,10.00
2022-09-21T22:44:41.729Z,10.00
2022-09-21T22:49:43.361Z,9.90
2022-09-21T22:54:44.964Z,9.90
2022-09-21T22:59:46.597Z,9.80
2022-09-21T23:04:48.751Z,9.80
2022-09-21T23:09:50.612Z,9.80
2022-09-21T23:14:52.386Z,9.90
2022-09-21T23:19:54.039Z,10.00
2022-09-21T23:24:56.097Z,10.10
2022-09-21T23:29:57.720Z,10.20
2022-09-21T23:34:59.430Z,10.30
2022-09-21T23:40:01.362Z,10.20
2022-09-21T23:45:03.090Z,10.10
2022-09-21T23:50:05.037Z,10.00
2022-09-21T23:55:06.988Z,9.90
